sensor_id;sensor_type;location;lat;lon;timestamp;P1;durP1;ratioP1;P2;durP2;ratioP2
15155;SDS011;7678;50.058;8.306;2022-10-31T00:02:13;19.73;;;7.27;;
15155;SDS011;7678;50.058;8.306;2022-10-31T00:04:41;14.00;;;6.80;;
15155;SDS011;7678;50.058;8.306;2022-10-31T00:07:09;11.30;;;7.37;;
15155;SDS011;7678;50.058;8.306;2022-10-31T00:09:40;14.33;;;7.60;;
15155;SDS011;7678;50.058;8.306;2022-10-31T00:12:13;10.60;;;7.50;;
15155;SDS011;7678;50.058;8.306;2022-10-31T00:14:45;12.00;;;8.00;;
15155;SDS011;7678;50.058;8.306;2022-10-31T00:17:15;10.33;;;7.60;;
15155;SDS011;7678;50.058;8.306;2022-10-31T00:19:43;12.27;;;7.80;;
15155;SDS011;7678;50.058;8.306;2022-10-31T00:22:14;13.03;;;7.90;;
15155;SDS011;7678;50.058;8.306;2022-10-31T00:24:42;11.87;;;7.70;;
15155;SDS011;7678;50.058;8.306;2022-10-31T00:27:12;20.83;;;8.37;;
15155;SDS011;7678;50.058;8.306;2022-10-31T00:29:41;30.63;;;8.50;;
15155;SDS011;7678;50.058;8.306;2022-10-31T00:32:09;15.33;;;7.57;;
15155;SDS011;7678;50.058;8.306;2022-10-31T00:34:37;11.70;;;7.37;;
15155;SDS011;7678;50.058;8.306;2022-10-31T00:37:05;14.47;;;8.33;;
15155;SDS011;7678;50.058;8.306;2022-10-31T00:39:35;15.23;;;8.47;;
15155;SDS011;7678;50.058;8.306;2022-10-31T00:42:03;16.03;;;8.53;;
15155;SDS011;7678;50.058;8.306;2022-10-31T00:44:32;15.60;;;8.80;;
15155;SDS011;7678;50.058;8.306;2022-10-31T00:47:00;13.93;;;8.13;;
15155;SDS011;7678;50.058;8.306;2022-10-31T00:49:32;10.53;;;7.83;;
15155;SDS011;7678;50.058;8.306;2022-10-31T00:52:00;12.40;;;6.93;;
15155;SDS011;7678;50.058;8.306;2022-10-31T00:54:28;13.03;;;7.23;;
15155;SDS011;7678;50.058;8.306;2022-10-31T00:56:57;16.77;;;7.70;;
15155;SDS011;7678;50.058;8.306;2022-10-31T00:59:25;10.00;;;7.30;;
15155;SDS011;7678;50.058;8.306;2022-10-31T01:01:54;12.47;;;7.00;;
15155;SDS011;7678;50.058;8.306;2022-10-31T01:04:23;12.20;;;6.50;;
15155;SDS011;7678;50.058;8.306;2022-10-31T01:06:50;12.93;;;6.40;;
15155;SDS011;7678;50.058;8.306;2022-10-31T01:09:18;11.80;;;6.87;;
15155;SDS011;7678;50.058;8.306;2022-10-31T01:11:46;14.77;;;7.03;;
15155;SDS011;7678;50.058;8.306;2022-10-31T01:14:14;12.53;;;6.83;;
15155;SDS011;7678;50.058;8.306;2022-10-31T01:16:42;15.03;;;7.50;;
15155;SDS011;7678;50.058;8.306;2022-10-31T01:19:11;11.67;;;8.20;;
15155;SDS011;7678;50.058;8.306;2022-10-31T01:21:39;15.83;;;7.70;;
15155;SDS011;7678;50.058;8.306;2022-10-31T01:24:07;14.37;;;7.10;;
15155;SDS011;7678;50.058;8.306;2022-10-31T01:26:36;11.33;;;7.33;;
15155;SDS011;7678;50.058;8.306;2022-10-31T01:29:05;12.00;;;7.13;;
15155;SDS011;7678;50.058;8.306;2022-10-31T01:31:35;12.27;;;7.50;;
15155;SDS011;7678;50.058;8.306;2022-10-31T01:34:04;9.93;;;6.63;;
15155;SDS011;7678;50.058;8.306;2022-10-31T01:36:34;12.17;;;6.97;;
15155;SDS011;7678;50.058;8.306;2022-10-31T01:39:06;8.90;;;6.43;;
15155;SDS011;7678;50.058;8.306;2022-10-31T01:41:37;10.70;;;5.80;;
15155;SDS011;7678;50.058;8.306;2022-10-31T01:47:10;13.13;;;6.93;;
15155;SDS011;7678;50.058;8.306;2022-10-31T01:49:43;9.00;;;6.23;;
15155;SDS011;7678;50.058;8.306;2022-10-31T01:52:18;12.53;;;6.73;;
15155;SDS011;7678;50.058;8.306;2022-10-31T01:54:48;12.30;;;6.50;;
15155;SDS011;7678;50.058;8.306;2022-10-31T01:57:21;8.20;;;5.60;;
15155;SDS011;7678;50.058;8.306;2022-10-31T01:59:50;12.37;;;6.07;;
15155;SDS011;7678;50.058;8.306;2022-10-31T02:02:22;8.10;;;5.13;;
15155;SDS011;7678;50.058;8.306;2022-10-31T02:04:52;10.80;;;6.20;;
15155;SDS011;7678;50.058;8.306;2022-10-31T02:07:25;9.70;;;5.60;;
15155;SDS011;7678;50.058;8.306;2022-10-31T02:09:57;10.97;;;5.53;;
15155;SDS011;7678;50.058;8.306;2022-10-31T02:12:25;7.10;;;5.60;;
15155;SDS011;7678;50.058;8.306;2022-10-31T02:14:54;9.97;;;6.00;;
15155;SDS011;7678;50.058;8.306;2022-10-31T02:17:22;9.90;;;4.90;;
15155;SDS011;7678;50.058;8.306;2022-10-31T02:19:51;10.00;;;5.60;;
15155;SDS011;7678;50.058;8.306;2022-10-31T02:22:29;11.50;;;5.57;;
15155;SDS011;7678;50.058;8.306;2022-10-31T02:25:12;10.13;;;5.40;;
15155;SDS011;7678;50.058;8.306;2022-10-31T02:28:00;11.13;;;6.40;;
15155;SDS011;7678;50.058;8.306;2022-10-31T02:30:41;8.33;;;5.43;;
15155;SDS011;7678;50.058;8.306;2022-10-31T02:33:23;14.87;;;6.93;;
15155;SDS011;7678;50.058;8.306;2022-10-31T02:35:59;12.97;;;6.57;;
15155;SDS011;7678;50.058;8.306;2022-10-31T02:38:35;10.63;;;6.07;;
15155;SDS011;7678;50.058;8.306;2022-10-31T02:41:10;10.50;;;6.17;;
15155;SDS011;7678;50.058;8.306;2022-10-31T02:43:49;9.17;;;5.53;;
15155;SDS011;7678;50.058;8.306;2022-10-31T02:46:27;14.13;;;6.13;;
15155;SDS011;7678;50.058;8.306;2022-10-31T02:49:02;9.80;;;6.83;;
15155;SDS011;7678;50.058;8.306;2022-10-31T02:51:34;10.07;;;6.43;;
15155;SDS011;7678;50.058;8.306;2022-10-31T02:54:03;15.33;;;6.20;;
15155;SDS011;7678;50.058;8.306;2022-10-31T02:56:32;12.53;;;6.47;;
15155;SDS011;7678;50.058;8.306;2022-10-31T02:59:01;11.70;;;6.57;;
15155;SDS011;7678;50.058;8.306;2022-10-31T03:07:28;9.17;;;6.60;;
15155;SDS011;7678;50.058;8.306;2022-10-31T03:10:05;12.70;;;6.97;;
15155;SDS011;7678;50.058;8.306;2022-10-31T03:12:45;10.63;;;6.57;;
15155;SDS011;7678;50.058;8.306;2022-10-31T03:15:24;11.97;;;7.10;;
15155;SDS011;7678;50.058;8.306;2022-10-31T03:17:57;13.97;;;7.10;;
15155;SDS011;7678;50.058;8.306;2022-10-31T03:20:32;12.47;;;7.53;;
15155;SDS011;7678;50.058;8.306;2022-10-31T03:23:05;12.00;;;7.10;;
15155;SDS011;7678;50.058;8.306;2022-10-31T03:25:37;10.10;;;7.33;;
15155;SDS011;7678;50.058;8.306;2022-10-31T03:28:09;15.43;;;6.97;;
15155;SDS011;7678;50.058;8.306;2022-10-31T03:30:42;10.33;;;7.27;;
15155;SDS011;7678;50.058;8.306;2022-10-31T03:33:13;16.90;;;7.10;;
15155;SDS011;7678;50.058;8.306;2022-10-31T03:35:47;11.30;;;7.20;;
15155;SDS011;7678;50.058;8.306;2022-10-31T03:38:18;10.90;;;6.13;;
15155;SDS011;7678;50.058;8.306;2022-10-31T03:40:47;13.60;;;7.20;;
15155;SDS011;7678;50.058;8.306;2022-10-31T03:43:19;15.17;;;7.57;;
15155;SDS011;7678;50.058;8.306;2022-10-31T03:45:51;13.37;;;7.40;;
15155;SDS011;7678;50.058;8.306;2022-10-31T03:48:20;14.13;;;7.73;;
15155;SDS011;7678;50.058;8.306;2022-10-31T03:50:52;10.37;;;7.70;;
15155;SDS011;7678;50.058;8.306;2022-10-31T03:53:30;11.47;;;7.20;;
15155;SDS011;7678;50.058;8.306;2022-10-31T03:56:02;12.40;;;7.80;;
15155;SDS011;7678;50.058;8.306;2022-10-31T03:58:35;16.50;;;7.60;;
15155;SDS011;7678;50.058;8.306;2022-10-31T04:01:09;12.67;;;7.33;;
15155;SDS011;7678;50.058;8.306;2022-10-31T04:03:42;21.17;;;8.97;;
15155;SDS011;7678;50.058;8.306;2022-10-31T04:06:14;12.13;;;7.43;;
15155;SDS011;7678;50.058;8.306;2022-10-31T04:08:45;11.27;;;6.97;;
15155;SDS011;7678;50.058;8.306;2022-10-31T04:11:15;10.43;;;6.90;;
15155;SDS011;7678;50.058;8.306;2022-10-31T04:13:47;12.10;;;6.27;;
15155;SDS011;7678;50.058;8.306;2022-10-31T04:16:16;14.17;;;7.43;;
15155;SDS011;7678;50.058;8.306;2022-10-31T04:18:45;10.07;;;7.07;;
15155;SDS011;7678;50.058;8.306;2022-10-31T04:21:17;11.60;;;6.27;;
15155;SDS011;7678;50.058;8.306;2022-10-31T04:23:45;12.23;;;7.00;;
15155;SDS011;7678;50.058;8.306;2022-10-31T04:26:13;9.73;;;6.33;;
15155;SDS011;7678;50.058;8.306;2022-10-31T04:28:44;11.63;;;6.23;;
15155;SDS011;7678;50.058;8.306;2022-10-31T04:31:12;8.83;;;6.13;;
15155;SDS011;7678;50.058;8.306;2022-10-31T04:33:44;10.00;;;6.37;;
15155;SDS011;7678;50.058;8.306;2022-10-31T04:36:12;13.27;;;6.00;;
15155;SDS011;7678;50.058;8.306;2022-10-31T04:38:41;10.97;;;5.73;;
15155;SDS011;7678;50.058;8.306;2022-10-31T04:41:09;12.13;;;6.90;;
15155;SDS011;7678;50.058;8.306;2022-10-31T04:43:42;9.73;;;6.33;;
15155;SDS011;7678;50.058;8.306;2022-10-31T04:46:11;11.30;;;6.23;;
15155;SDS011;7678;50.058;8.306;2022-10-31T04:48:39;9.43;;;6.07;;
15155;SDS011;7678;50.058;8.306;2022-10-31T04:51:07;12.93;;;6.80;;
15155;SDS011;7678;50.058;8.306;2022-10-31T04:53:37;14.63;;;6.90;;
15155;SDS011;7678;50.058;8.306;2022-10-31T04:56:06;12.07;;;6.47;;
15155;SDS011;7678;50.058;8.306;2022-10-31T04:58:34;8.83;;;6.40;;
15155;SDS011;7678;50.058;8.306;2022-10-31T05:01:02;12.80;;;7.00;;
15155;SDS011;7678;50.058;8.306;2022-10-31T05:03:31;9.10;;;6.53;;
15155;SDS011;7678;50.058;8.306;2022-10-31T05:05:59;11.83;;;7.47;;
15155;SDS011;7678;50.058;8.306;2022-10-31T05:08:26;10.83;;;6.70;;
15155;SDS011;7678;50.058;8.306;2022-10-31T05:11:00;10.20;;;6.70;;
15155;SDS011;7678;50.058;8.306;2022-10-31T05:13:31;10.83;;;6.30;;
15155;SDS011;7678;50.058;8.306;2022-10-31T05:16:02;12.47;;;7.00;;
15155;SDS011;7678;50.058;8.306;2022-10-31T05:18:33;12.87;;;7.00;;
15155;SDS011;7678;50.058;8.306;2022-10-31T05:21:01;13.30;;;7.53;;
15155;SDS011;7678;50.058;8.306;2022-10-31T05:23:29;13.30;;;7.20;;
15155;SDS011;7678;50.058;8.306;2022-10-31T05:25:57;10.47;;;6.63;;
15155;SDS011;7678;50.058;8.306;2022-10-31T05:28:25;11.67;;;6.83;;
15155;SDS011;7678;50.058;8.306;2022-10-31T05:30:56;9.80;;;6.37;;
15155;SDS011;7678;50.058;8.306;2022-10-31T05:33:24;12.13;;;6.33;;
15155;SDS011;7678;50.058;8.306;2022-10-31T05:35:52;10.73;;;6.23;;
15155;SDS011;7678;50.058;8.306;2022-10-31T05:38:20;11.77;;;6.03;;
15155;SDS011;7678;50.058;8.306;2022-10-31T05:40:48;14.03;;;6.27;;
15155;SDS011;7678;50.058;8.306;2022-10-31T05:43:16;9.33;;;5.90;;
15155;SDS011;7678;50.058;8.306;2022-10-31T05:45:44;14.80;;;6.30;;
15155;SDS011;7678;50.058;8.306;2022-10-31T05:48:13;11.93;;;6.10;;
15155;SDS011;7678;50.058;8.306;2022-10-31T05:50:41;12.50;;;6.87;;
15155;SDS011;7678;50.058;8.306;2022-10-31T05:53:09;10.80;;;6.53;;
15155;SDS011;7678;50.058;8.306;2022-10-31T05:55:37;10.83;;;6.77;;
15155;SDS011;7678;50.058;8.306;2022-10-31T05:58:06;10.80;;;6.30;;
15155;SDS011;7678;50.058;8.306;2022-10-31T06:00:34;10.33;;;6.13;;
15155;SDS011;7678;50.058;8.306;2022-10-31T06:03:04;15.73;;;6.33;;
15155;SDS011;7678;50.058;8.306;2022-10-31T06:05:35;12.40;;;6.20;;
15155;SDS011;7678;50.058;8.306;2022-10-31T06:08:03;14.57;;;6.73;;
15155;SDS011;7678;50.058;8.306;2022-10-31T06:10:31;15.93;;;8.20;;
15155;SDS011;7678;50.058;8.306;2022-10-31T06:13:02;17.03;;;7.50;;
15155;SDS011;7678;50.058;8.306;2022-10-31T06:15:29;14.67;;;7.90;;
15155;SDS011;7678;50.058;8.306;2022-10-31T06:17:58;9.77;;;6.73;;
15155;SDS011;7678;50.058;8.306;2022-10-31T06:20:28;10.63;;;7.10;;
15155;SDS011;7678;50.058;8.306;2022-10-31T06:23:00;13.80;;;7.27;;
15155;SDS011;7678;50.058;8.306;2022-10-31T06:25:29;14.80;;;8.37;;
15155;SDS011;7678;50.058;8.306;2022-10-31T06:27:58;17.13;;;9.10;;
15155;SDS011;7678;50.058;8.306;2022-10-31T06:30:27;17.00;;;9.53;;
15155;SDS011;7678;50.058;8.306;2022-10-31T06:33:02;14.73;;;8.63;;
15155;SDS011;7678;50.058;8.306;2022-10-31T06:35:31;12.20;;;7.67;;
15155;SDS011;7678;50.058;8.306;2022-10-31T06:38:00;15.80;;;7.27;;
15155;SDS011;7678;50.058;8.306;2022-10-31T06:40:29;17.40;;;7.90;;
15155;SDS011;7678;50.058;8.306;2022-10-31T06:42:57;15.27;;;8.00;;
15155;SDS011;7678;50.058;8.306;2022-10-31T06:45:26;16.23;;;8.13;;
15155;SDS011;7678;50.058;8.306;2022-10-31T06:47:55;16.37;;;8.07;;
15155;SDS011;7678;50.058;8.306;2022-10-31T06:50:44;15.43;;;8.00;;
15155;SDS011;7678;50.058;8.306;2022-10-31T06:53:13;14.53;;;7.83;;
15155;SDS011;7678;50.058;8.306;2022-10-31T06:55:42;12.47;;;8.17;;
15155;SDS011;7678;50.058;8.306;2022-10-31T06:58:10;14.87;;;8.97;;
15155;SDS011;7678;50.058;8.306;2022-10-31T07:00:38;14.87;;;9.23;;
15155;SDS011;7678;50.058;8.306;2022-10-31T07:03:10;13.67;;;8.63;;
15155;SDS011;7678;50.058;8.306;2022-10-31T07:05:39;15.30;;;9.27;;
15155;SDS011;7678;50.058;8.306;2022-10-31T07:08:10;15.10;;;8.57;;
15155;SDS011;7678;50.058;8.306;2022-10-31T07:10:41;12.93;;;8.93;;
15155;SDS011;7678;50.058;8.306;2022-10-31T07:13:10;16.67;;;9.37;;
15155;SDS011;7678;50.058;8.306;2022-10-31T07:15:40;18.70;;;11.13;;
15155;SDS011;7678;50.058;8.306;2022-10-31T07:18:10;15.60;;;9.37;;
15155;SDS011;7678;50.058;8.306;2022-10-31T07:20:39;16.23;;;9.57;;
15155;SDS011;7678;50.058;8.306;2022-10-31T07:23:07;13.97;;;9.30;;
15155;SDS011;7678;50.058;8.306;2022-10-31T07:25:36;12.57;;;8.90;;
15155;SDS011;7678;50.058;8.306;2022-10-31T07:28:07;14.23;;;9.47;;
15155;SDS011;7678;50.058;8.306;2022-10-31T07:30:35;12.03;;;8.07;;
15155;SDS011;7678;50.058;8.306;2022-10-31T07:33:04;15.60;;;9.00;;
15155;SDS011;7678;50.058;8.306;2022-10-31T07:35:32;13.57;;;9.63;;
15155;SDS011;7678;50.058;8.306;2022-10-31T07:38:07;12.70;;;8.40;;
15155;SDS011;7678;50.058;8.306;2022-10-31T07:40:36;17.80;;;10.07;;
15155;SDS011;7678;50.058;8.306;2022-10-31T07:43:05;14.57;;;9.20;;
15155;SDS011;7678;50.058;8.306;2022-10-31T07:45:39;15.53;;;9.03;;
15155;SDS011;7678;50.058;8.306;2022-10-31T07:48:08;16.43;;;9.73;;
15155;SDS011;7678;50.058;8.306;2022-10-31T07:50:41;17.83;;;10.23;;
15155;SDS011;7678;50.058;8.306;2022-10-31T07:53:11;16.23;;;11.13;;
15155;SDS011;7678;50.058;8.306;2022-10-31T07:55:40;20.20;;;12.87;;
15155;SDS011;7678;50.058;8.306;2022-10-31T07:58:15;25.07;;;13.67;;
15155;SDS011;7678;50.058;8.306;2022-10-31T08:00:45;22.70;;;12.67;;
15155;SDS011;7678;50.058;8.306;2022-10-31T08:03:15;18.67;;;11.77;;
15155;SDS011;7678;50.058;8.306;2022-10-31T08:05:44;18.57;;;11.67;;
15155;SDS011;7678;50.058;8.306;2022-10-31T08:08:12;26.23;;;11.57;;
15155;SDS011;7678;50.058;8.306;2022-10-31T08:10:41;18.47;;;10.83;;
15155;SDS011;7678;50.058;8.306;2022-10-31T08:13:09;23.10;;;10.27;;
15155;SDS011;7678;50.058;8.306;2022-10-31T08:15:40;28.83;;;10.40;;
15155;SDS011;7678;50.058;8.306;2022-10-31T08:18:10;21.20;;;10.90;;
15155;SDS011;7678;50.058;8.306;2022-10-31T08:20:39;21.53;;;10.10;;
15155;SDS011;7678;50.058;8.306;2022-10-31T08:23:08;17.23;;;9.67;;
15155;SDS011;7678;50.058;8.306;2022-10-31T08:25:37;24.80;;;9.80;;
15155;SDS011;7678;50.058;8.306;2022-10-31T08:28:06;12.97;;;8.80;;
15155;SDS011;7678;50.058;8.306;2022-10-31T08:30:36;18.63;;;9.67;;
15155;SDS011;7678;50.058;8.306;2022-10-31T08:33:09;19.23;;;9.33;;
15155;SDS011;7678;50.058;8.306;2022-10-31T08:35:40;16.87;;;8.73;;
15155;SDS011;7678;50.058;8.306;2022-10-31T08:38:09;13.87;;;8.50;;
15155;SDS011;7678;50.058;8.306;2022-10-31T08:40:39;18.10;;;8.97;;
15155;SDS011;7678;50.058;8.306;2022-10-31T08:43:11;16.20;;;9.50;;
15155;SDS011;7678;50.058;8.306;2022-10-31T08:45:40;16.50;;;8.83;;
15155;SDS011;7678;50.058;8.306;2022-10-31T08:48:11;14.47;;;9.23;;
15155;SDS011;7678;50.058;8.306;2022-10-31T08:50:40;16.60;;;7.77;;
15155;SDS011;7678;50.058;8.306;2022-10-31T08:53:11;11.60;;;8.50;;
15155;SDS011;7678;50.058;8.306;2022-10-31T08:55:41;22.27;;;10.13;;
15155;SDS011;7678;50.058;8.306;2022-10-31T08:58:10;25.67;;;9.67;;
15155;SDS011;7678;50.058;8.306;2022-10-31T09:00:39;17.50;;;9.43;;
15155;SDS011;7678;50.058;8.306;2022-10-31T09:03:08;20.33;;;10.10;;
15155;SDS011;7678;50.058;8.306;2022-10-31T09:05:40;14.70;;;9.03;;
15155;SDS011;7678;50.058;8.306;2022-10-31T09:08:08;19.70;;;9.47;;
15155;SDS011;7678;50.058;8.306;2022-10-31T09:10:44;16.03;;;10.30;;
15155;SDS011;7678;50.058;8.306;2022-10-31T09:13:12;22.47;;;9.10;;
15155;SDS011;7678;50.058;8.306;2022-10-31T09:15:43;19.30;;;10.20;;
15155;SDS011;7678;50.058;8.306;2022-10-31T09:18:15;16.30;;;9.67;;
15155;SDS011;7678;50.058;8.306;2022-10-31T09:20:47;23.57;;;10.77;;
15155;SDS011;7678;50.058;8.306;2022-10-31T09:23:17;19.37;;;9.37;;
15155;SDS011;7678;50.058;8.306;2022-10-31T09:25:49;16.50;;;9.10;;
15155;SDS011;7678;50.058;8.306;2022-10-31T09:28:19;24.90;;;10.47;;
15155;SDS011;7678;50.058;8.306;2022-10-31T09:30:48;20.53;;;9.10;;
15155;SDS011;7678;50.058;8.306;2022-10-31T09:33:19;21.73;;;9.40;;
15155;SDS011;7678;50.058;8.306;2022-10-31T09:35:51;23.10;;;10.07;;
15155;SDS011;7678;50.058;8.306;2022-10-31T09:38:20;15.90;;;10.37;;
15155;SDS011;7678;50.058;8.306;2022-10-31T09:40:51;18.97;;;10.47;;
15155;SDS011;7678;50.058;8.306;2022-10-31T09:43:28;23.20;;;10.30;;
15155;SDS011;7678;50.058;8.306;2022-10-31T09:46:07;21.27;;;10.40;;
15155;SDS011;7678;50.058;8.306;2022-10-31T09:48:48;22.27;;;10.50;;
15155;SDS011;7678;50.058;8.306;2022-10-31T09:51:24;15.13;;;10.47;;
15155;SDS011;7678;50.058;8.306;2022-10-31T09:54:04;18.57;;;10.40;;
15155;SDS011;7678;50.058;8.306;2022-10-31T09:56:36;13.77;;;9.57;;
15155;SDS011;7678;50.058;8.306;2022-10-31T09:59:11;16.73;;;10.43;;
15155;SDS011;7678;50.058;8.306;2022-10-31T10:01:45;20.63;;;10.77;;
15155;SDS011;7678;50.058;8.306;2022-10-31T10:04:29;12.13;;;9.47;;
15155;SDS011;7678;50.058;8.306;2022-10-31T10:07:05;17.00;;;10.43;;
15155;SDS011;7678;50.058;8.306;2022-10-31T10:09:41;19.27;;;10.13;;
15155;SDS011;7678;50.058;8.306;2022-10-31T10:12:14;14.17;;;10.00;;
15155;SDS011;7678;50.058;8.306;2022-10-31T10:15:09;17.60;;;10.50;;
15155;SDS011;7678;50.058;8.306;2022-10-31T10:17:58;17.17;;;10.37;;
15155;SDS011;7678;50.058;8.306;2022-10-31T10:20:37;18.23;;;10.17;;
15155;SDS011;7678;50.058;8.306;2022-10-31T10:23:21;17.20;;;10.27;;
15155;SDS011;7678;50.058;8.306;2022-10-31T10:25:59;13.87;;;9.67;;
15155;SDS011;7678;50.058;8.306;2022-10-31T10:28:37;12.93;;;9.73;;
15155;SDS011;7678;50.058;8.306;2022-10-31T10:31:11;15.93;;;10.47;;
15155;SDS011;7678;50.058;8.306;2022-10-31T10:33:43;16.27;;;9.90;;
15155;SDS011;7678;50.058;8.306;2022-10-31T10:36:25;21.47;;;10.37;;
15155;SDS011;7678;50.058;8.306;2022-10-31T10:38:58;14.67;;;10.20;;
15155;SDS011;7678;50.058;8.306;2022-10-31T10:41:30;14.10;;;9.27;;
15155;SDS011;7678;50.058;8.306;2022-10-31T10:44:00;15.67;;;9.57;;
15155;SDS011;7678;50.058;8.306;2022-10-31T10:46:44;15.50;;;9.70;;
15155;SDS011;7678;50.058;8.306;2022-10-31T10:49:38;15.80;;;9.33;;
15155;SDS011;7678;50.058;8.306;2022-10-31T10:52:15;13.00;;;9.63;;
15155;SDS011;7678;50.058;8.306;2022-10-31T10:55:16;15.33;;;9.00;;
15155;SDS011;7678;50.058;8.306;2022-10-31T10:57:56;17.27;;;9.23;;
15155;SDS011;7678;50.058;8.306;2022-10-31T11:00:27;19.47;;;9.20;;
15155;SDS011;7678;50.058;8.306;2022-10-31T11:02:58;14.53;;;8.77;;
15155;SDS011;7678;50.058;8.306;2022-10-31T11:05:28;16.07;;;9.70;;
15155;SDS011;7678;50.058;8.306;2022-10-31T11:08:03;19.57;;;10.23;;
15155;SDS011;7678;50.058;8.306;2022-10-31T11:10:31;16.80;;;8.90;;
15155;SDS011;7678;50.058;8.306;2022-10-31T11:13:01;20.17;;;9.37;;
15155;SDS011;7678;50.058;8.306;2022-10-31T11:15:35;18.40;;;9.60;;
15155;SDS011;7678;50.058;8.306;2022-10-31T11:18:12;13.47;;;8.97;;
15155;SDS011;7678;50.058;8.306;2022-10-31T11:20:50;16.63;;;9.60;;
15155;SDS011;7678;50.058;8.306;2022-10-31T11:23:22;13.57;;;8.60;;
15155;SDS011;7678;50.058;8.306;2022-10-31T11:25:53;13.93;;;8.50;;
15155;SDS011;7678;50.058;8.306;2022-10-31T11:28:24;17.63;;;7.97;;
15155;SDS011;7678;50.058;8.306;2022-10-31T11:30:55;15.47;;;9.07;;
15155;SDS011;7678;50.058;8.306;2022-10-31T11:33:27;17.13;;;8.43;;
15155;SDS011;7678;50.058;8.306;2022-10-31T11:35:57;12.93;;;8.67;;
15155;SDS011;7678;50.058;8.306;2022-10-31T11:38:30;19.73;;;9.20;;
15155;SDS011;7678;50.058;8.306;2022-10-31T11:41:05;17.80;;;7.93;;
15155;SDS011;7678;50.058;8.306;2022-10-31T11:43:38;19.23;;;8.60;;
15155;SDS011;7678;50.058;8.306;2022-10-31T11:46:14;16.70;;;7.40;;
15155;SDS011;7678;50.058;8.306;2022-10-31T11:48:47;12.30;;;7.63;;
15155;SDS011;7678;50.058;8.306;2022-10-31T11:51:22;12.93;;;7.87;;
15155;SDS011;7678;50.058;8.306;2022-10-31T11:53:54;15.13;;;7.13;;
15155;SDS011;7678;50.058;8.306;2022-10-31T11:56:36;18.67;;;7.47;;
15155;SDS011;7678;50.058;8.306;2022-10-31T11:59:06;16.03;;;5.70;;
15155;SDS011;7678;50.058;8.306;2022-10-31T12:01:48;8.97;;;5.60;;
15155;SDS011;7678;50.058;8.306;2022-10-31T12:04:27;12.33;;;6.37;;
15155;SDS011;7678;50.058;8.306;2022-10-31T12:07:00;15.57;;;5.80;;
15155;SDS011;7678;50.058;8.306;2022-10-31T12:09:30;17.73;;;6.40;;
15155;SDS011;7678;50.058;8.306;2022-10-31T12:12:16;17.23;;;6.43;;
15155;SDS011;7678;50.058;8.306;2022-10-31T12:15:22;14.20;;;7.50;;
15155;SDS011;7678;50.058;8.306;2022-10-31T12:18:02;12.03;;;6.17;;
15155;SDS011;7678;50.058;8.306;2022-10-31T12:20:48;10.50;;;6.07;;
15155;SDS011;7678;50.058;8.306;2022-10-31T12:23:25;12.63;;;5.77;;
15155;SDS011;7678;50.058;8.306;2022-10-31T12:26:08;16.47;;;5.33;;
15155;SDS011;7678;50.058;8.306;2022-10-31T12:28:54;18.10;;;5.77;;
15155;SDS011;7678;50.058;8.306;2022-10-31T12:31:46;10.47;;;5.90;;
15155;SDS011;7678;50.058;8.306;2022-10-31T12:34:32;9.43;;;6.00;;
15155;SDS011;7678;50.058;8.306;2022-10-31T12:37:03;14.63;;;6.10;;
15155;SDS011;7678;50.058;8.306;2022-10-31T12:39:40;11.53;;;6.53;;
15155;SDS011;7678;50.058;8.306;2022-10-31T12:42:17;11.40;;;6.57;;
15155;SDS011;7678;50.058;8.306;2022-10-31T12:45:12;11.67;;;6.40;;
15155;SDS011;7678;50.058;8.306;2022-10-31T12:48:00;12.20;;;6.83;;
15155;SDS011;7678;50.058;8.306;2022-10-31T12:50:56;14.20;;;6.80;;
15155;SDS011;7678;50.058;8.306;2022-10-31T12:53:35;14.47;;;6.50;;
15155;SDS011;7678;50.058;8.306;2022-10-31T12:56:20;14.80;;;7.07;;
15155;SDS011;7678;50.058;8.306;2022-10-31T12:58:59;12.27;;;5.87;;
15155;SDS011;7678;50.058;8.306;2022-10-31T13:01:33;11.20;;;5.10;;
15155;SDS011;7678;50.058;8.306;2022-10-31T13:04:03;15.23;;;5.60;;
15155;SDS011;7678;50.058;8.306;2022-10-31T13:06:39;11.70;;;4.70;;
15155;SDS011;7678;50.058;8.306;2022-10-31T13:09:13;14.53;;;5.07;;
15155;SDS011;7678;50.058;8.306;2022-10-31T13:11:46;8.07;;;4.97;;
15155;SDS011;7678;50.058;8.306;2022-10-31T13:14:18;13.47;;;6.50;;
15155;SDS011;7678;50.058;8.306;2022-10-31T13:16:51;16.13;;;6.03;;
15155;SDS011;7678;50.058;8.306;2022-10-31T13:19:22;14.20;;;6.60;;
15155;SDS011;7678;50.058;8.306;2022-10-31T13:21:55;13.73;;;6.57;;
15155;SDS011;7678;50.058;8.306;2022-10-31T13:24:30;9.13;;;6.10;;
15155;SDS011;7678;50.058;8.306;2022-10-31T13:27:02;15.33;;;5.73;;
15155;SDS011;7678;50.058;8.306;2022-10-31T13:29:39;13.80;;;6.10;;
15155;SDS011;7678;50.058;8.306;2022-10-31T13:32:14;10.03;;;5.80;;
15155;SDS011;7678;50.058;8.306;2022-10-31T13:34:44;15.10;;;6.67;;
15155;SDS011;7678;50.058;8.306;2022-10-31T13:37:19;12.80;;;6.43;;
15155;SDS011;7678;50.058;8.306;2022-10-31T13:40:04;15.03;;;6.60;;
15155;SDS011;7678;50.058;8.306;2022-10-31T13:42:48;14.93;;;6.77;;
15155;SDS011;7678;50.058;8.306;2022-10-31T13:45:23;8.30;;;5.43;;
15155;SDS011;7678;50.058;8.306;2022-10-31T13:47:55;12.17;;;6.30;;
15155;SDS011;7678;50.058;8.306;2022-10-31T13:50:26;13.27;;;6.50;;
15155;SDS011;7678;50.058;8.306;2022-10-31T13:53:14;10.57;;;6.07;;
15155;SDS011;7678;50.058;8.306;2022-10-31T13:55:49;18.17;;;6.50;;
15155;SDS011;7678;50.058;8.306;2022-10-31T13:58:29;11.67;;;5.87;;
15155;SDS011;7678;50.058;8.306;2022-10-31T14:01:05;12.63;;;6.17;;
15155;SDS011;7678;50.058;8.306;2022-10-31T14:03:42;12.07;;;6.63;;
15155;SDS011;7678;50.058;8.306;2022-10-31T14:06:34;10.67;;;5.87;;
15155;SDS011;7678;50.058;8.306;2022-10-31T14:09:05;10.57;;;6.43;;
15155;SDS011;7678;50.058;8.306;2022-10-31T14:11:51;12.20;;;6.70;;
15155;SDS011;7678;50.058;8.306;2022-10-31T14:14:19;13.07;;;6.47;;
15155;SDS011;7678;50.058;8.306;2022-10-31T14:16:53;15.47;;;6.77;;
15155;SDS011;7678;50.058;8.306;2022-10-31T14:19:23;18.83;;;8.33;;
15155;SDS011;7678;50.058;8.306;2022-10-31T14:21:55;16.33;;;6.93;;
15155;SDS011;7678;50.058;8.306;2022-10-31T14:27:35;16.07;;;7.07;;
15155;SDS011;7678;50.058;8.306;2022-10-31T14:30:29;19.20;;;8.27;;
15155;SDS011;7678;50.058;8.306;2022-10-31T14:32:58;15.63;;;6.93;;
15155;SDS011;7678;50.058;8.306;2022-10-31T14:35:36;17.27;;;7.83;;
15155;SDS011;7678;50.058;8.306;2022-10-31T14:38:17;14.57;;;7.00;;
15155;SDS011;7678;50.058;8.306;2022-10-31T14:41:08;15.40;;;7.83;;
15155;SDS011;7678;50.058;8.306;2022-10-31T14:43:56;13.03;;;7.40;;
15155;SDS011;7678;50.058;8.306;2022-10-31T14:46:54;11.37;;;6.93;;
15155;SDS011;7678;50.058;8.306;2022-10-31T14:49:36;14.70;;;6.97;;
15155;SDS011;7678;50.058;8.306;2022-10-31T14:52:16;12.10;;;6.00;;
15155;SDS011;7678;50.058;8.306;2022-10-31T14:54:54;9.80;;;5.87;;
15155;SDS011;7678;50.058;8.306;2022-10-31T14:57:26;9.20;;;5.77;;
15155;SDS011;7678;50.058;8.306;2022-10-31T15:00:04;12.10;;;6.87;;
15155;SDS011;7678;50.058;8.306;2022-10-31T15:02:39;10.90;;;6.67;;
15155;SDS011;7678;50.058;8.306;2022-10-31T15:05:22;11.17;;;7.13;;
15155;SDS011;7678;50.058;8.306;2022-10-31T15:07:57;9.73;;;6.97;;
15155;SDS011;7678;50.058;8.306;2022-10-31T15:10:28;12.40;;;7.70;;
15155;SDS011;7678;50.058;8.306;2022-10-31T15:13:08;12.40;;;6.90;;
15155;SDS011;7678;50.058;8.306;2022-10-31T15:15:47;10.87;;;6.77;;
15155;SDS011;7678;50.058;8.306;2022-10-31T15:18:18;11.57;;;7.20;;
15155;SDS011;7678;50.058;8.306;2022-10-31T15:20:48;12.00;;;7.00;;
15155;SDS011;7678;50.058;8.306;2022-10-31T15:23:36;12.27;;;7.93;;
15155;SDS011;7678;50.058;8.306;2022-10-31T15:26:11;17.57;;;9.03;;
15155;SDS011;7678;50.058;8.306;2022-10-31T15:28:44;18.50;;;9.10;;
15155;SDS011;7678;50.058;8.306;2022-10-31T15:31:32;11.90;;;7.57;;
15155;SDS011;7678;50.058;8.306;2022-10-31T15:34:01;15.90;;;8.10;;
15155;SDS011;7678;50.058;8.306;2022-10-31T15:36:32;14.63;;;7.53;;